createdAt,value
2019-04-12T00:00:03.513Z,0.00
2019-04-12T00:01:03.730Z,0.00
2019-04-12T00:02:03.606Z,0.00
2019-04-12T00:03:03.625Z,0.00
2019-04-12T00:04:03.666Z,0.00
2019-04-12T00:05:03.727Z,0.00
2019-04-12T00:06:03.781Z,0.00
2019-04-12T00:07:04.006Z,0.00
2019-04-12T00:08:03.845Z,0.00
2019-04-12T00:09:03.882Z,0.00
2019-04-12T00:10:03.945Z,0.00
2019-04-12T00:11:03.968Z,0.00
2019-04-12T00:12:04.012Z,0.00
2019-04-12T00:13:04.059Z,0.00
2019-04-12T00:14:04.101Z,0.00
2019-04-12T00:15:04.165Z,0.00
2019-04-12T00:16:04.191Z,0.00
2019-04-12T00:17:04.225Z,0.00
2019-04-12T00:18:04.267Z,0.00
2019-04-12T00:19:04.315Z,0.00
2019-04-12T00:20:04.481Z,0.00
2019-04-12T00:21:04.399Z,0.00
2019-04-12T00:22:04.446Z,0.00
2019-04-12T00:23:04.497Z,0.00
2019-04-12T00:24:04.528Z,0.00
2019-04-12T00:25:04.601Z,0.00
2019-04-12T00:26:04.634Z,0.00
2019-04-12T00:27:04.673Z,0.00
2019-04-12T00:28:04.701Z,0.00
2019-04-12T00:29:04.747Z,0.00
2019-04-12T00:30:04.788Z,0.00
2019-04-12T00:31:04.847Z,0.00
2019-04-12T00:32:04.885Z,0.00
2019-04-12T00:33:04.923Z,0.00
2019-04-12T00:34:04.974Z,0.00
2019-04-12T00:35:04.999Z,0.00
2019-04-12T00:36:05.067Z,0.00
2019-04-12T00:37:05.104Z,0.00
2019-04-12T00:38:05.130Z,0.00
2019-04-12T00:39:05.171Z,0.00
2019-04-12T00:40:05.218Z,0.00
2019-04-12T00:41:05.279Z,0.00
2019-04-12T00:42:05.304Z,0.00
2019-04-12T00:43:05.342Z,0.00
2019-04-12T00:44:05.386Z,0.00
2019-04-12T00:45:05.429Z,0.00
2019-04-12T00:46:06.265Z,0.00
2019-04-12T00:47:09.069Z,0.00
2019-04-12T00:48:05.558Z,0.00
2019-04-12T00:49:07.124Z,0.00
2019-04-12T00:50:05.648Z,0.00
2019-04-12T00:51:05.723Z,0.00
2019-04-12T00:52:05.731Z,0.00
2019-04-12T00:53:05.772Z,0.00
2019-04-12T00:54:05.816Z,0.00
2019-04-12T00:55:05.855Z,0.00
2019-04-12T00:56:05.934Z,0.00
2019-04-12T00:57:05.945Z,0.00
2019-04-12T00:58:06.004Z,0.00
2019-04-12T00:59:06.030Z,0.00
2019-04-12T01:00:06.091Z,0.00
2019-04-12T01:01:06.117Z,0.00
2019-04-12T01:02:06.179Z,0.00
2019-04-12T01:03:06.207Z,0.00
2019-04-12T01:04:06.252Z,0.00
2019-04-12T01:05:06.284Z,0.00
2019-04-12T01:06:06.328Z,0.00
2019-04-12T01:07:06.411Z,0.00
2019-04-12T01:08:06.412Z,0.00
2019-04-12T01:09:06.463Z,0.00
2019-04-12T01:10:06.498Z,0.00
2019-04-12T01:11:06.543Z,0.00
2019-04-12T01:12:06.605Z,0.00
2019-04-12T01:13:06.628Z,0.00
2019-04-12T01:14:06.682Z,0.00
2019-04-12T01:15:06.711Z,0.00
2019-04-12T01:16:06.753Z,0.00
2019-04-12T01:17:06.824Z,0.00
2019-04-12T01:18:06.857Z,0.00
2019-04-12T01:19:06.884Z,0.00
2019-04-12T01:20:06.923Z,0.00
2019-04-12T01:21:07.564Z,0.00
2019-04-12T01:22:08.904Z,0.00
2019-04-12T01:23:09.598Z,0.00
2019-04-12T01:24:08.171Z,0.00
2019-04-12T01:25:07.147Z,0.00
2019-04-12T01:26:07.189Z,0.00
2019-04-12T01:27:07.224Z,0.00
2019-04-12T01:28:07.287Z,0.00
2019-04-12T01:29:07.311Z,0.00
2019-04-12T01:30:07.351Z,0.00
2019-04-12T01:31:07.398Z,0.00
2019-04-12T01:32:07.450Z,0.00
2019-04-12T01:33:07.507Z,0.00
2019-04-12T01:34:07.523Z,0.00
2019-04-12T01:35:07.567Z,0.00
2019-04-12T01:36:07.606Z,0.00
2019-04-12T01:37:07.650Z,0.00
2019-04-12T01:38:07.721Z,0.00
2019-04-12T01:39:07.739Z,0.00
2019-04-12T01:40:07.780Z,0.00
2019-04-12T01:41:07.819Z,0.00
2019-04-12T01:42:07.861Z,0.00
2019-04-12T01:43:07.920Z,0.00
2019-04-12T01:44:07.974Z,0.00
2019-04-12T01:45:07.990Z,0.00
2019-04-12T01:46:08.035Z,0.00
2019-04-12T01:47:08.070Z,0.00
2019-04-12T01:48:08.166Z,0.00
2019-04-12T01:49:08.157Z,0.00
2019-04-12T01:50:08.201Z,0.00
2019-04-12T01:51:08.259Z,0.00
2019-04-12T01:52:08.291Z,0.00
2019-04-12T01:53:08.347Z,0.00
2019-04-12T01:54:08.390Z,0.00
2019-04-12T01:55:09.136Z,0.00
2019-04-12T01:56:08.460Z,0.00
2019-04-12T01:57:08.499Z,0.00
2019-04-12T01:58:08.536Z,0.00
2019-04-12T01:59:08.597Z,0.00
2019-04-12T02:00:08.628Z,0.00
2019-04-12T02:01:08.662Z,0.00
2019-04-12T02:02:08.714Z,0.00
2019-04-12T02:03:08.754Z,0.00
2019-04-12T02:04:08.813Z,0.00
2019-04-12T02:05:08.832Z,0.00
2019-04-12T02:06:08.882Z,0.00
2019-04-12T02:07:08.915Z,0.00
2019-04-12T02:08:08.957Z,0.00
2019-04-12T02:09:09.021Z,0.00
2019-04-12T02:10:09.039Z,0.00
2019-04-12T02:11:09.081Z,0.00
2019-04-12T02:12:09.124Z,0.00
2019-04-12T02:13:09.212Z,0.00
2019-04-12T02:14:09.230Z,0.00
2019-04-12T02:15:09.250Z,0.00
2019-04-12T02:16:09.293Z,0.00
2019-04-12T02:17:09.341Z,0.00
2019-04-12T02:18:09.377Z,0.00
2019-04-12T02:19:09.453Z,0.00
2019-04-12T02:20:09.462Z,0.00
2019-04-12T02:21:09.503Z,0.00
2019-04-12T02:22:09.547Z,0.00
2019-04-12T02:23:09.603Z,0.00
2019-04-12T02:24:09.649Z,0.00
2019-04-12T02:25:20.184Z,0.00
2019-04-12T02:26:09.728Z,0.00
2019-04-12T02:27:09.780Z,0.00
2019-04-12T02:28:09.799Z,0.00
2019-04-12T02:29:09.842Z,0.00
2019-04-12T02:30:09.915Z,0.00
2019-04-12T02:31:09.930Z,0.00
2019-04-12T02:32:09.969Z,0.00
2019-04-12T02:33:10.009Z,0.00
2019-04-12T02:34:10.055Z,0.00
2019-04-12T02:35:10.123Z,0.00
2019-04-12T02:36:10.137Z,0.00
2019-04-12T02:37:10.189Z,0.00
2019-04-12T02:38:10.225Z,0.00
2019-04-12T02:39:10.261Z,0.00
2019-04-12T02:40:10.329Z,0.00
2019-04-12T02:41:10.347Z,0.00
2019-04-12T02:42:10.391Z,0.00
2019-04-12T02:43:10.433Z,0.00
2019-04-12T02:44:10.485Z,0.00
2019-04-12T02:45:10.669Z,0.00
2019-04-12T02:46:10.568Z,0.00
2019-04-12T02:47:10.598Z,0.00
2019-04-12T02:48:10.640Z,0.00
2019-04-12T02:49:10.682Z,0.00
2019-04-12T02:50:10.744Z,0.00
2019-04-12T02:51:10.785Z,0.00
2019-04-12T02:52:10.844Z,0.00
2019-04-12T02:53:10.850Z,0.00
2019-04-12T02:54:10.891Z,0.00
2019-04-12T02:55:10.942Z,0.00
2019-04-12T02:56:10.997Z,0.00
2019-04-12T02:57:11.017Z,0.00
2019-04-12T02:58:11.062Z,0.00
2019-04-12T02:59:11.109Z,0.00
2019-04-12T03:00:11.140Z,0.00
2019-04-12T03:01:11.211Z,0.00
2019-04-12T03:02:11.223Z,0.00
2019-04-12T03:03:11.267Z,0.00
2019-04-12T03:04:11.315Z,0.00
2019-04-12T03:05:11.347Z,0.00
2019-04-12T03:06:11.417Z,0.00
2019-04-12T03:07:11.435Z,0.00
2019-04-12T03:08:11.476Z,0.00
2019-04-12T03:09:11.526Z,0.00
2019-04-12T03:10:11.568Z,0.00
2019-04-12T03:11:11.615Z,0.00
2019-04-12T03:12:11.639Z,0.00
2019-04-12T03:13:11.687Z,0.00
2019-04-12T03:14:11.723Z,0.00
2019-04-12T03:15:11.766Z,0.00
2019-04-12T03:16:11.840Z,0.00
2019-04-12T03:17:11.849Z,0.00
2019-04-12T03:18:11.891Z,0.00
2019-04-12T03:19:11.945Z,0.00
2019-04-12T03:20:11.976Z,0.00
2019-04-12T03:21:12.039Z,0.00
2019-04-12T03:22:12.077Z,0.00
2019-04-12T03:23:12.101Z,0.00
2019-04-12T03:24:12.152Z,0.00
2019-04-12T03:25:12.189Z,0.00
2019-04-12T03:26:12.228Z,0.00
2019-04-12T03:27:12.291Z,0.00
2019-04-12T03:28:12.305Z,0.00
2019-04-12T03:29:12.348Z,0.00
2019-04-12T03:30:12.389Z,0.00
2019-04-12T03:31:12.428Z,0.00
2019-04-12T03:32:12.494Z,0.00
2019-04-12T03:33:12.513Z,0.00
2019-04-12T03:34:12.567Z,0.00
2019-04-12T03:35:12.618Z,0.00
2019-04-12T03:36:12.638Z,0.00
2019-04-12T03:37:12.696Z,0.00
2019-04-12T03:38:12.722Z,0.00
2019-04-12T03:39:12.761Z,0.00
2019-04-12T03:40:12.804Z,0.00
2019-04-12T03:41:12.845Z,0.00
2019-04-12T03:42:12.911Z,0.00
2019-04-12T03:43:12.927Z,0.00
2019-04-12T03:44:12.968Z,0.00
2019-04-12T03:45:13.016Z,0.00
2019-04-12T03:46:13.054Z,0.00
2019-04-12T03:47:13.121Z,0.00
2019-04-12T03:48:13.156Z,0.00
2019-04-12T03:49:13.179Z,0.00
2019-04-12T03:50:13.220Z,0.00
2019-04-12T03:51:13.257Z,0.00
2019-04-12T03:52:13.327Z,0.00
2019-04-12T03:53:13.362Z,0.00
2019-04-12T03:54:13.384Z,0.00
2019-04-12T03:55:13.434Z,0.00
2019-04-12T03:56:13.467Z,0.00
2019-04-12T03:57:13.509Z,0.00
2019-04-12T03:58:13.564Z,0.00
2019-04-12T03:59:13.590Z,0.00
2019-04-12T04:00:13.633Z,0.00
2019-04-12T04:01:13.674Z,0.00
2019-04-12T04:02:13.735Z,0.00
2019-04-12T04:03:13.777Z,0.00
2019-04-12T04:04:13.798Z,0.00
2019-04-12T04:05:13.839Z,0.00
2019-04-12T04:06:13.883Z,0.00
2019-04-12T04:07:13.932Z,0.00
2019-04-12T04:08:14.022Z,0.00
2019-04-12T04:09:14.038Z,0.00
2019-04-12T04:10:14.052Z,0.00
2019-04-12T04:11:14.083Z,4.00
2019-04-12T04:12:14.128Z,4.00
2019-04-12T04:13:14.169Z,4.00
2019-04-12T04:14:14.250Z,4.00
2019-04-12T04:15:14.253Z,4.00
2019-04-12T04:16:14.300Z,4.00
2019-04-12T04:17:14.332Z,8.00
2019-04-12T04:18:14.401Z,8.00
2019-04-12T04:19:14.447Z,12.00
2019-04-12T04:20:14.459Z,16.00
2019-04-12T04:21:14.500Z,12.00
2019-04-12T04:22:14.544Z,16.00
2019-04-12T04:23:14.593Z,24.00
2019-04-12T04:24:14.646Z,28.00
2019-04-12T04:25:14.666Z,32.00
2019-04-12T04:26:23.018Z,36.00
2019-04-12T04:27:14.753Z,44.00
2019-04-12T04:28:14.799Z,48.00
2019-04-12T04:29:14.867Z,60.00
2019-04-12T04:30:14.914Z,72.00
2019-04-12T04:31:14.933Z,80.00
2019-04-12T04:32:14.961Z,92.00
2019-04-12T04:33:15.005Z,108.00
2019-04-12T04:34:15.056Z,120.00
2019-04-12T04:35:15.087Z,132.00
2019-04-12T04:36:15.120Z,152.00
2019-04-12T04:37:15.156Z,168.00
2019-04-12T04:38:15.203Z,188.00
2019-04-12T04:39:15.297Z,208.00
2019-04-12T04:40:15.286Z,228.00
2019-04-12T04:41:15.332Z,252.00
2019-04-12T04:42:15.373Z,276.00
2019-04-12T04:43:15.403Z,300.00
2019-04-12T04:44:17.892Z,328.00
2019-04-12T04:45:15.507Z,364.00
2019-04-12T04:46:15.531Z,396.00
2019-04-12T04:47:15.596Z,432.00
2019-04-12T04:48:15.614Z,472.00
2019-04-12T04:49:15.661Z,512.00
2019-04-12T04:50:15.718Z,552.00
2019-04-12T04:51:15.736Z,596.00
2019-04-12T04:52:16.606Z,640.00
2019-04-12T04:53:15.878Z,680.00
2019-04-12T04:54:15.870Z,720.00
2019-04-12T04:55:15.919Z,760.00
2019-04-12T04:56:15.939Z,804.00
2019-04-12T04:57:15.981Z,852.00
2019-04-12T04:58:16.028Z,904.00
2019-04-12T04:59:16.070Z,956.00
2019-04-12T05:00:16.129Z,1020.00
2019-04-12T05:01:16.165Z,1072.00
2019-04-12T05:02:16.196Z,1124.00
2019-04-12T05:03:16.228Z,1176.00
2019-04-12T05:04:16.272Z,1220.00
2019-04-12T05:05:16.333Z,1264.00
2019-04-12T05:06:16.357Z,1308.00
2019-04-12T05:07:16.398Z,1352.00
2019-04-12T05:08:16.439Z,1400.00
2019-04-12T05:09:16.489Z,1448.00
2019-04-12T05:10:16.531Z,1496.00
2019-04-12T05:11:16.554Z,1536.00
2019-04-12T05:12:16.599Z,1588.00
2019-04-12T05:13:16.639Z,1636.00
2019-04-12T05:14:16.680Z,1692.00
2019-04-12T05:15:16.739Z,1748.00
2019-04-12T05:16:16.786Z,1796.00
2019-04-12T05:17:16.825Z,1844.00
2019-04-12T05:18:16.858Z,1892.00
2019-04-12T05:19:16.886Z,1928.00
2019-04-12T05:20:16.930Z,1972.00
2019-04-12T05:21:17.042Z,2024.00
2019-04-12T05:22:17.014Z,2068.00
2019-04-12T05:23:17.062Z,2120.00
2019-04-12T05:24:17.098Z,2168.00
2019-04-12T05:25:17.138Z,2212.00
2019-04-12T05:26:17.199Z,2256.00
2019-04-12T05:27:17.215Z,2304.00
2019-04-12T05:28:17.252Z,2340.00
2019-04-12T05:29:17.298Z,2380.00
2019-04-12T05:30:17.340Z,2432.00
2019-04-12T05:31:17.393Z,2476.00
2019-04-12T05:32:17.415Z,2532.00
2019-04-12T05:33:17.455Z,2568.00
2019-04-12T05:34:17.492Z,2624.00
2019-04-12T05:35:17.554Z,2684.00
2019-04-12T05:36:17.598Z,2736.00
2019-04-12T05:37:17.618Z,2772.00
2019-04-12T05:38:17.657Z,2812.00
2019-04-12T05:39:17.715Z,2848.00
2019-04-12T05:40:17.750Z,2880.00
2019-04-12T05:41:17.804Z,2980.00
2019-04-12T05:42:17.854Z,3076.00
2019-04-12T05:43:17.868Z,3196.00
2019-04-12T05:44:17.906Z,3296.00
2019-04-12T05:45:17.951Z,3388.00
2019-04-12T05:46:18.031Z,3452.00
2019-04-12T05:47:18.023Z,3504.00
2019-04-12T05:48:18.073Z,3544.00
2019-04-12T05:49:18.156Z,3588.00
2019-04-12T05:50:18.146Z,3620.00
2019-04-12T05:51:18.212Z,3684.00
2019-04-12T05:52:20.522Z,3700.00
2019-04-12T05:53:18.293Z,3720.00
2019-04-12T05:54:18.315Z,3708.00
2019-04-12T05:55:18.353Z,3712.00
2019-04-12T05:56:18.434Z,3740.00
2019-04-12T05:57:18.437Z,3820.00
2019-04-12T05:58:18.476Z,3904.00
2019-04-12T05:59:18.513Z,4008.00
2019-04-12T06:00:18.556Z,4092.00
2019-04-12T06:01:18.622Z,4152.00
2019-04-12T06:02:18.656Z,4220.00
2019-04-12T06:03:18.677Z,4284.00
2019-04-12T06:04:18.719Z,4380.00
2019-04-12T06:05:18.763Z,4504.00
2019-04-12T06:06:18.836Z,4640.00
2019-04-12T06:07:18.850Z,4768.00
2019-04-12T06:08:18.888Z,4892.00
2019-04-12T06:09:18.923Z,5012.00
2019-04-12T06:10:18.982Z,5148.00
2019-04-12T06:11:19.025Z,5292.00
2019-04-12T06:12:19.149Z,5408.00
2019-04-12T06:13:19.095Z,5484.00
2019-04-12T06:14:19.137Z,5564.00
2019-04-12T06:15:19.167Z,5676.00
2019-04-12T06:16:19.208Z,5796.00
2019-04-12T06:17:19.289Z,5904.00
2019-04-12T06:18:19.389Z,6008.00
2019-04-12T06:19:19.473Z,6120.00
2019-04-12T06:20:19.401Z,6220.00
2019-04-12T06:21:19.410Z,6344.00
2019-04-12T06:22:19.485Z,6444.00
2019-04-12T06:23:19.495Z,6516.00
2019-04-12T06:24:19.540Z,6608.00
2019-04-12T06:25:19.585Z,6764.00
2019-04-12T06:26:19.629Z,6992.00
2019-04-12T06:27:19.690Z,7280.00
2019-04-12T06:28:19.702Z,7608.00
2019-04-12T06:29:19.749Z,7976.00
2019-04-12T06:30:19.790Z,8352.00
2019-04-12T06:31:19.832Z,8712.00
2019-04-12T06:32:19.889Z,8984.00
2019-04-12T06:33:19.906Z,9176.00
2019-04-12T06:34:19.952Z,9260.00
2019-04-12T06:35:19.989Z,9408.00
2019-04-12T06:36:20.034Z,9600.00
2019-04-12T06:37:20.091Z,10236.00
2019-04-12T06:38:20.117Z,11204.00
2019-04-12T06:39:20.184Z,11020.00
2019-04-12T06:40:20.197Z,10780.00
2019-04-12T06:41:20.246Z,11252.00
2019-04-12T06:42:20.280Z,11796.00
2019-04-12T06:43:20.342Z,12328.00
2019-04-12T06:44:20.364Z,12860.00
2019-04-12T06:45:20.445Z,12872.00
2019-04-12T06:46:20.458Z,12680.00
2019-04-12T06:47:20.488Z,12840.00
2019-04-12T06:48:20.570Z,13148.00
2019-04-12T06:49:20.577Z,13132.00
2019-04-12T06:50:20.612Z,13312.00
2019-04-12T06:51:20.663Z,13608.00
2019-04-12T06:52:20.716Z,13532.00
2019-04-12T06:53:20.757Z,13680.00
2019-04-12T06:54:20.782Z,14088.00
2019-04-12T06:55:20.823Z,14964.00
2019-04-12T06:56:20.867Z,13756.00
2019-04-12T06:57:22.993Z,14128.00
2019-04-12T06:58:20.971Z,13932.00
2019-04-12T06:59:21.018Z,14292.00
2019-04-12T07:00:21.041Z,15936.00
2019-04-12T07:01:21.083Z,16096.00
2019-04-12T07:02:21.122Z,17600.00
2019-04-12T07:03:21.200Z,17440.00
2019-04-12T07:04:21.210Z,17408.00
2019-04-12T07:05:21.272Z,18464.00
2019-04-12T07:06:21.293Z,20000.00
2019-04-12T07:07:21.336Z,21024.00
2019-04-12T07:08:21.412Z,20768.00
2019-04-12T07:09:21.455Z,21344.00
2019-04-12T07:10:21.467Z,22176.00
2019-04-12T07:11:21.509Z,21984.00
2019-04-12T07:12:21.569Z,22592.00
2019-04-12T07:13:21.604Z,23296.00
2019-04-12T07:14:21.675Z,23552.00
2019-04-12T07:15:21.681Z,23712.00
2019-04-12T07:16:21.790Z,23552.00
2019-04-12T07:17:21.775Z,23744.00
2019-04-12T07:18:21.819Z,24736.00
2019-04-12T07:19:21.876Z,25088.00
2019-04-12T07:20:21.906Z,23456.00
2019-04-12T07:21:21.950Z,22272.00
2019-04-12T07:22:21.999Z,23072.00
2019-04-12T07:23:22.065Z,23808.00
2019-04-12T07:24:22.119Z,24928.00
2019-04-12T07:25:22.133Z,25920.00
2019-04-12T07:26:22.194Z,24320.00
2019-04-12T07:27:33.916Z,23264.00
2019-04-12T07:28:22.264Z,21056.00
2019-04-12T07:29:22.319Z,21056.00
2019-04-12T07:30:22.373Z,20544.00
2019-04-12T07:31:22.400Z,22752.00
2019-04-12T07:32:22.448Z,24384.00
2019-04-12T07:33:22.503Z,25472.00
2019-04-12T07:34:22.556Z,25472.00
2019-04-12T07:35:22.604Z,26240.00
2019-04-12T07:36:22.630Z,27200.00
2019-04-12T07:37:22.682Z,28096.00
2019-04-12T07:38:22.772Z,28256.00
2019-04-12T07:39:22.774Z,26304.00
2019-04-12T07:40:22.832Z,28640.00
2019-04-12T07:41:22.858Z,29120.00
2019-04-12T07:42:22.908Z,30016.00
2019-04-12T07:43:22.952Z,30688.00
2019-04-12T07:44:23.005Z,27200.00
2019-04-12T07:45:23.070Z,32064.00
2019-04-12T07:46:23.279Z,34304.00
2019-04-12T07:47:23.135Z,35296.00
2019-04-12T07:48:23.179Z,35936.00
2019-04-12T07:49:24.988Z,35232.00
2019-04-12T07:50:23.269Z,34464.00
2019-04-12T07:51:23.335Z,35296.00
2019-04-12T07:52:23.368Z,35680.00
2019-04-12T07:53:23.475Z,35168.00
2019-04-12T07:54:23.454Z,36224.00
2019-04-12T07:55:23.505Z,35712.00
2019-04-12T07:56:23.571Z,35264.00
2019-04-12T07:57:23.596Z,35904.00
2019-04-12T07:58:23.656Z,35168.00
2019-04-12T07:59:23.691Z,36544.00
2019-04-12T08:00:23.800Z,37504.00
2019-04-12T08:01:23.810Z,36352.00
2019-04-12T08:02:23.843Z,37536.00
2019-04-12T08:03:23.880Z,39328.00
2019-04-12T08:04:23.927Z,40320.00
2019-04-12T08:05:23.972Z,40224.00
2019-04-12T08:06:24.047Z,40480.00
2019-04-12T08:07:24.114Z,41152.00
2019-04-12T08:08:24.118Z,41312.00
2019-04-12T08:09:24.167Z,42944.00
2019-04-12T08:10:24.224Z,41184.00
2019-04-12T08:11:24.281Z,41600.00
2019-04-12T08:12:24.339Z,41920.00
2019-04-12T08:13:24.360Z,41184.00
2019-04-12T08:14:24.418Z,43328.00
2019-04-12T08:15:24.455Z,44448.00
2019-04-12T08:16:24.496Z,42464.00
2019-04-12T08:17:24.572Z,43712.00
2019-04-12T08:18:24.614Z,41792.00
2019-04-12T08:19:24.648Z,40544.00
2019-04-12T08:20:24.699Z,30720.00
2019-04-12T08:21:24.751Z,30592.00
2019-04-12T08:22:24.794Z,46848.00
2019-04-12T08:23:24.838Z,46272.00
2019-04-12T08:24:24.891Z,41600.00
2019-04-12T08:25:24.942Z,42816.00
2019-04-12T08:26:24.996Z,41216.00
2019-04-12T08:27:25.025Z,30080.00
2019-04-12T08:28:25.072Z,29216.00
2019-04-12T08:29:25.123Z,28448.00
2019-04-12T08:30:25.175Z,28384.00
2019-04-12T08:31:25.240Z,29152.00
2019-04-12T08:32:25.291Z,29600.00
2019-04-12T08:33:25.313Z,27104.00
2019-04-12T08:34:25.365Z,28736.00
2019-04-12T08:35:25.413Z,28480.00
2019-04-12T08:36:26.181Z,28768.00
2019-04-12T08:37:25.540Z,37248.00
2019-04-12T08:38:25.562Z,43840.00
2019-04-12T08:39:25.607Z,48256.00
2019-04-12T08:40:25.661Z,51168.00
2019-04-12T08:41:25.705Z,54592.00
2019-04-12T08:42:25.777Z,53248.00
2019-04-12T08:43:25.791Z,54208.00
2019-04-12T08:44:25.847Z,53248.00
2019-04-12T08:45:25.901Z,54816.00
2019-04-12T08:46:25.934Z,54944.00
2019-04-12T08:47:26.055Z,54688.00
2019-04-12T08:48:26.030Z,48416.00
2019-04-12T08:49:26.081Z,52576.00
2019-04-12T08:50:26.154Z,53760.00
2019-04-12T08:51:26.201Z,54240.00
2019-04-12T08:52:26.299Z,55552.00
2019-04-12T08:53:26.301Z,56224.00
2019-04-12T08:54:26.365Z,56064.00
2019-04-12T08:55:26.418Z,55232.00
2019-04-12T08:56:26.441Z,54688.00
2019-04-12T08:57:26.515Z,50176.00
2019-04-12T08:58:26.552Z,48064.00
2019-04-12T08:59:26.571Z,47840.00
2019-04-12T09:00:26.618Z,50368.00
2019-04-12T09:01:26.716Z,53440.00
2019-04-12T09:02:26.786Z,58112.00
2019-04-12T09:03:26.793Z,61312.00
2019-04-12T09:04:26.808Z,60960.00
2019-04-12T09:05:32.470Z,63648.00
2019-04-12T09:06:26.918Z,62592.00
2019-04-12T09:07:27.032Z,62368.00
2019-04-12T09:08:27.014Z,62528.00
2019-04-12T09:09:27.102Z,64864.00
2019-04-12T09:10:27.182Z,62656.00
2019-04-12T09:11:27.142Z,64800.00
2019-04-12T09:12:27.291Z,63872.00
2019-04-12T09:13:27.262Z,59872.00
2019-04-12T09:14:27.345Z,58624.00
2019-04-12T09:15:27.372Z,61504.00
2019-04-12T09:16:27.396Z,64416.00
2019-04-12T09:17:27.530Z,67392.00
2019-04-12T09:18:30.446Z,71744.00
2019-04-12T09:19:27.598Z,69600.00
2019-04-12T09:20:27.714Z,64672.00
2019-04-12T09:21:27.634Z,62176.00
2019-04-12T09:22:27.705Z,62528.00
2019-04-12T09:23:27.749Z,67552.00
2019-04-12T09:24:27.893Z,66880.00
2019-04-12T09:25:27.928Z,62816.00
2019-04-12T09:26:27.905Z,67488.00
2019-04-12T09:27:28.035Z,68224.00
2019-04-12T09:28:28.006Z,65024.00
2019-04-12T09:29:28.150Z,66816.00
2019-04-12T09:30:28.095Z,59648.00
2019-04-12T09:31:28.149Z,61600.00
2019-04-12T09:32:28.169Z,42528.00
2019-04-12T09:33:28.254Z,54976.00
2019-04-12T09:34:28.268Z,66592.00
2019-04-12T09:35:28.315Z,66816.00
2019-04-12T09:36:28.472Z,69344.00
2019-04-12T09:37:28.403Z,65600.00
2019-04-12T09:38:28.496Z,67712.00
2019-04-12T09:39:28.506Z,66976.00
2019-04-12T09:40:28.552Z,62432.00
2019-04-12T09:41:28.602Z,58240.00
2019-04-12T09:42:28.649Z,54240.00
2019-04-12T09:43:28.785Z,61568.00
2019-04-12T09:44:28.769Z,57184.00
2019-04-12T09:45:28.800Z,56512.00
2019-04-12T09:46:28.843Z,55360.00
2019-04-12T09:47:28.891Z,55552.00
2019-04-12T09:48:28.943Z,61088.00
2019-04-12T09:49:29.018Z,57696.00
2019-04-12T09:50:29.046Z,52448.00
2019-04-12T09:51:29.098Z,56384.00
2019-04-12T09:52:29.137Z,58464.00
2019-04-12T09:53:29.190Z,62528.00
2019-04-12T09:54:29.250Z,55904.00
2019-04-12T09:55:29.283Z,53344.00
2019-04-12T09:56:29.356Z,58240.00
2019-04-12T09:57:29.384Z,56160.00
2019-04-12T09:58:37.234Z,52224.00
2019-04-12T09:59:29.486Z,46080.00
2019-04-12T10:00:29.535Z,45760.00
2019-04-12T10:01:32.234Z,39680.00
2019-04-12T10:02:29.614Z,45312.00
2019-04-12T10:03:29.670Z,48352.00
2019-04-12T10:04:29.729Z,49920.00
2019-04-12T10:05:29.807Z,52960.00
2019-04-12T10:06:29.816Z,51072.00
2019-04-12T10:07:29.858Z,50752.00
2019-04-12T10:08:29.902Z,51200.00
2019-04-12T10:09:29.983Z,56480.00
2019-04-12T10:10:30.048Z,57600.00
2019-04-12T10:11:30.051Z,59936.00
2019-04-12T10:12:30.100Z,62304.00
2019-04-12T10:13:30.161Z,58528.00
2019-04-12T10:14:30.206Z,58176.00
2019-04-12T10:15:30.290Z,58112.00
2019-04-12T10:16:30.311Z,56384.00
2019-04-12T10:17:30.343Z,62688.00
2019-04-12T10:18:30.398Z,61664.00
2019-04-12T10:19:30.445Z,63328.00
2019-04-12T10:20:30.518Z,62592.00
2019-04-12T10:21:30.541Z,55424.00
2019-04-12T10:22:30.583Z,47456.00
2019-04-12T10:23:30.636Z,40608.00
2019-04-12T10:24:30.684Z,39264.00
2019-04-12T10:25:30.746Z,35808.00
2019-04-12T10:26:30.774Z,42368.00
2019-04-12T10:27:30.839Z,48384.00
2019-04-12T10:28:30.872Z,50432.00
2019-04-12T10:29:30.919Z,52288.00
2019-04-12T10:30:30.991Z,51424.00
2019-04-12T10:31:31.167Z,47936.00
2019-04-12T10:32:31.061Z,51520.00
2019-04-12T10:33:31.110Z,50912.00
2019-04-12T10:34:31.164Z,48320.00
2019-04-12T10:35:31.226Z,52352.00
2019-04-12T10:36:31.257Z,52800.00
2019-04-12T10:37:31.297Z,65600.00
2019-04-12T10:38:31.359Z,61376.00
2019-04-12T10:39:31.391Z,58912.00
2019-04-12T10:40:31.469Z,59264.00
2019-04-12T10:41:31.485Z,60736.00
2019-04-12T10:42:31.538Z,61504.00
2019-04-12T10:43:31.586Z,65408.00
2019-04-12T10:44:31.632Z,65632.00
2019-04-12T10:45:31.814Z,70784.00
2019-04-12T10:46:31.730Z,71200.00
2019-04-12T10:47:31.783Z,70496.00
2019-04-12T10:48:31.840Z,70304.00
2019-04-12T10:49:31.889Z,71072.00
2019-04-12T10:50:31.946Z,65280.00
2019-04-12T10:51:32.001Z,61408.00
2019-04-12T10:52:32.019Z,62432.00
2019-04-12T10:53:32.067Z,64000.00
2019-04-12T10:54:34.073Z,59392.00
2019-04-12T10:55:32.180Z,62592.00
2019-04-12T10:56:32.249Z,66080.00
2019-04-12T10:57:32.267Z,67616.00
2019-04-12T10:58:32.321Z,79584.00
2019-04-12T10:59:32.371Z,80288.00
2019-04-12T11:00:32.431Z,75936.00
2019-04-12T11:01:32.480Z,76480.00
2019-04-12T11:02:32.506Z,75040.00
2019-04-12T11:03:32.562Z,79648.00
2019-04-12T11:04:32.606Z,79488.00
2019-04-12T11:05:32.650Z,78816.00
2019-04-12T11:06:32.735Z,81504.00
2019-04-12T11:07:32.743Z,80512.00
2019-04-12T11:08:32.825Z,75520.00
2019-04-12T11:09:32.844Z,72704.00
2019-04-12T11:10:32.891Z,68096.00
2019-04-12T11:11:32.974Z,68640.00
2019-04-12T11:12:32.991Z,71872.00
2019-04-12T11:13:33.034Z,76032.00
2019-04-12T11:14:33.090Z,74368.00
2019-04-12T11:15:33.138Z,76032.00
2019-04-12T11:16:33.206Z,74592.00
2019-04-12T11:17:33.267Z,73408.00
2019-04-12T11:18:33.279Z,68576.00
2019-04-12T11:19:33.340Z,70944.00
2019-04-12T11:20:33.378Z,82560.00
2019-04-12T11:21:33.428Z,83488.00
2019-04-12T11:22:33.496Z,82336.00
2019-04-12T11:23:33.520Z,81888.00
2019-04-12T11:24:33.572Z,80416.00
2019-04-12T11:25:33.619Z,82304.00
2019-04-12T11:26:33.680Z,81088.00
2019-04-12T11:27:33.735Z,81280.00
2019-04-12T11:28:33.768Z,83968.00
2019-04-12T11:29:33.825Z,84224.00
2019-04-12T11:30:33.869Z,86432.00
2019-04-12T11:31:33.919Z,89920.00
2019-04-12T11:32:33.990Z,89536.00
2019-04-12T11:33:34.047Z,92128.00
2019-04-12T11:34:34.086Z,85504.00
2019-04-12T11:35:34.124Z,82304.00
2019-04-12T11:36:34.168Z,80352.00
2019-04-12T11:37:34.246Z,76896.00
2019-04-12T11:38:34.290Z,77152.00
2019-04-12T11:39:34.323Z,80640.00
2019-04-12T11:40:34.411Z,83680.00
2019-04-12T11:41:34.418Z,89152.00
2019-04-12T11:42:34.494Z,88928.00
2019-04-12T11:43:34.525Z,85600.00
2019-04-12T11:44:34.588Z,82528.00
2019-04-12T11:45:34.646Z,78304.00
2019-04-12T11:46:37.548Z,78496.00
2019-04-12T11:47:34.770Z,80960.00
2019-04-12T11:48:34.808Z,82880.00
2019-04-12T11:49:34.834Z,83168.00
2019-04-12T11:50:34.886Z,84512.00
2019-04-12T11:51:34.926Z,83296.00
2019-04-12T11:52:35.000Z,85952.00
2019-04-12T11:53:35.055Z,87840.00
2019-04-12T11:54:35.083Z,87104.00
2019-04-12T11:55:35.131Z,93888.00
2019-04-12T11:56:35.184Z,90336.00
2019-04-12T11:57:37.658Z,81824.00
2019-04-12T11:58:47.596Z,77184.00
2019-04-12T11:59:35.338Z,77920.00
2019-04-12T12:00:35.385Z,70752.00
2019-04-12T12:01:35.450Z,73600.00
2019-04-12T12:02:35.497Z,68928.00
2019-04-12T12:03:35.557Z,68448.00
2019-04-12T12:04:35.611Z,71232.00
2019-04-12T12:05:35.760Z,72416.00
2019-04-12T12:06:35.693Z,74144.00
2019-04-12T12:07:35.756Z,69536.00
2019-04-12T12:08:35.831Z,79840.00
2019-04-12T12:09:35.844Z,69504.00
2019-04-12T12:10:35.907Z,68544.00
2019-04-12T12:11:35.947Z,69728.00
2019-04-12T12:12:36.031Z,65344.00
2019-04-12T12:13:36.081Z,67648.00
2019-04-12T12:14:36.107Z,78336.00
2019-04-12T12:15:36.151Z,82432.00
2019-04-12T12:16:36.212Z,84544.00
2019-04-12T12:17:36.265Z,86528.00
2019-04-12T12:18:36.329Z,88896.00
2019-04-12T12:19:36.348Z,89536.00
2019-04-12T12:20:36.406Z,91392.00